sensor_id;sensor_type;location;lat;lon;timestamp;pressure;altitude;pressure_sealevel;temperature;humidity
22930;BME280;11630;42.660;23.292;2023-03-01T00:01:32;68301.33;;;6.91;100.00
22930;BME280;11630;42.660;23.292;2023-03-01T00:04:01;68326.54;;;7.13;100.00
22930;BME280;11630;42.660;23.292;2023-03-01T00:06:32;68328.72;;;7.15;100.00
22930;BME280;11630;42.660;23.292;2023-03-01T00:09:04;68325.19;;;7.13;100.00
22930;BME280;11630;42.660;23.292;2023-03-01T00:11:34;68315.98;;;7.04;100.00
22930;BME280;11630;42.660;23.292;2023-03-01T00:14:05;68306.78;;;7.01;100.00
22930;BME280;11630;42.660;23.292;2023-03-01T00:16:42;68304.08;;;6.98;100.00
22930;BME280;11630;42.660;23.292;2023-03-01T00:19:17;68319.25;;;7.10;100.00
22930;BME280;11630;42.660;23.292;2023-03-01T00:21:48;68309.73;;;6.95;100.00
22930;BME280;11630;42.660;23.292;2023-03-01T00:24:17;68302.42;;;6.92;100.00
22930;BME280;11630;42.660;23.292;2023-03-01T00:26:47;68309.49;;;7.03;100.00
22930;BME280;11630;42.660;23.292;2023-03-01T00:29:20;68311.40;;;7.04;100.00
22930;BME280;11630;42.660;23.292;2023-03-01T00:31:51;68300.79;;;6.88;100.00
22930;BME280;11630;42.660;23.292;2023-03-01T00:34:23;68300.81;;;6.93;100.00
22930;BME280;11630;42.660;23.292;2023-03-01T00:36:53;68269.91;;;6.65;100.00
22930;BME280;11630;42.660;23.292;2023-03-01T00:39:24;68300.81;;;6.93;100.00
22930;BME280;11630;42.660;23.292;2023-03-01T00:41:55;68280.74;;;6.72;100.00
22930;BME280;11630;42.660;23.292;2023-03-01T00:44:26;68276.95;;;6.69;100.00
22930;BME280;11630;42.660;23.292;2023-03-01T00:46:57;68300.54;;;6.91;100.00
22930;BME280;11630;42.660;23.292;2023-03-01T00:49:28;68301.89;;;6.94;100.00
22930;BME280;11630;42.660;23.292;2023-03-01T00:51:59;68302.94;;;6.90;100.00
22930;BME280;11630;42.660;23.292;2023-03-01T00:54:30;68302.42;;;6.92;100.00
22930;BME280;11630;42.660;23.292;2023-03-01T00:57:00;68304.03;;;6.91;100.00
22930;BME280;11630;42.660;23.292;2023-03-01T00:59:31;68290.50;;;6.81;100.00
22930;BME280;11630;42.660;23.292;2023-03-01T01:02:04;68285.33;;;6.75;100.00
22930;BME280;11630;42.660;23.292;2023-03-01T01:04:34;68294.83;;;6.85;100.00
22930;BME280;11630;42.660;23.292;2023-03-01T01:07:05;68276.94;;;6.66;100.00
22930;BME280;11630;42.660;23.292;2023-03-01T01:09:36;68284.53;;;6.73;100.00
22930;BME280;11630;42.660;23.292;2023-03-01T01:12:06;68294.30;;;6.85;100.00
22930;BME280;11630;42.660;23.292;2023-03-01T01:14:38;68285.36;;;6.78;100.00
22930;BME280;11630;42.660;23.292;2023-03-01T01:17:11;68275.86;;;6.68;100.00
22930;BME280;11630;42.660;23.292;2023-03-01T01:19:54;68250.41;;;6.49;100.00
22930;BME280;11630;42.660;23.292;2023-03-01T01:22:15;68278.05;;;6.72;100.00
22930;BME280;11630;42.660;23.292;2023-03-01T01:24:46;68276.94;;;6.66;100.00
22930;BME280;11630;42.660;23.292;2023-03-01T01:27:18;68262.88;;;6.58;100.00
22930;BME280;11630;42.660;23.292;2023-03-01T01:29:49;68271.81;;;6.65;100.00
22930;BME280;11630;42.660;23.292;2023-03-01T01:32:20;68289.70;;;6.84;100.00
22930;BME280;11630;42.660;23.292;2023-03-01T01:34:51;68295.66;;;6.89;100.00
22930;BME280;11630;42.660;23.292;2023-03-01T01:37:22;68311.66;;;7.03;100.00
22930;BME280;11630;42.660;23.292;2023-03-01T01:39:51;68281.28;;;6.75;100.00
22930;BME280;11630;42.660;23.292;2023-03-01T01:42:25;68285.33;;;6.75;100.00
22930;BME280;11630;42.660;23.292;2023-03-01T01:45:31;68299.72;;;6.92;100.00
22930;BME280;11630;42.660;23.292;2023-03-01T01:48:04;68315.72;;;7.05;100.00
22930;BME280;11630;42.660;23.292;2023-03-01T01:50:38;68312.20;;;7.06;100.00
22930;BME280;11630;42.660;23.292;2023-03-01T01:53:10;68309.48;;;7.01;100.00
22930;BME280;11630;42.660;23.292;2023-03-01T01:55:45;68336.87;;;7.25;100.00
22930;BME280;11630;42.660;23.292;2023-03-01T01:58:15;68318.44;;;7.10;100.00
22930;BME280;11630;42.660;23.292;2023-03-01T02:00:48;68309.75;;;7.00;100.00
22930;BME280;11630;42.660;23.292;2023-03-01T02:03:29;68289.70;;;6.84;100.00
22930;BME280;11630;42.660;23.292;2023-03-01T02:06:03;68295.10;;;6.86;100.00
22930;BME280;11630;42.660;23.292;2023-03-01T02:08:33;68286.17;;;6.82;100.00
22930;BME280;11630;42.660;23.292;2023-03-01T02:11:03;68300.55;;;6.94;100.00
22930;BME280;11630;42.660;23.292;2023-03-01T02:13:35;68305.68;;;6.95;100.00
22930;BME280;11630;42.660;23.292;2023-03-01T02:16:13;68302.16;;;6.93;100.00
22930;BME280;11630;42.660;23.292;2023-03-01T02:18:43;68276.97;;;6.74;100.00
22930;BME280;11630;42.660;23.292;2023-03-01T02:23:56;68309.22;;;7.02;100.00
22930;BME280;11630;42.660;23.292;2023-03-01T02:26:40;68277.77;;;6.71;100.00
22930;BME280;11630;42.660;23.292;2023-03-01T02:29:08;68290.52;;;6.86;100.00
22930;BME280;11630;42.660;23.292;2023-03-01T02:31:38;68281.84;;;6.78;100.00
22930;BME280;11630;42.660;23.292;2023-03-01T02:34:15;68256.38;;;6.52;100.00
22930;BME280;11630;42.660;23.292;2023-03-01T02:36:57;68273.14;;;6.63;100.00
22930;BME280;11630;42.660;23.292;2023-03-01T02:39:34;68270.70;;;6.59;100.00
22930;BME280;11630;42.660;23.292;2023-03-01T02:42:05;68268.28;;;6.63;100.00
22930;BME280;11630;42.660;23.292;2023-03-01T02:44:36;68287.80;;;6.81;100.00
22930;BME280;11630;42.660;23.292;2023-03-01T02:47:06;68277.22;;;6.70;100.00
22930;BME280;11630;42.660;23.292;2023-03-01T02:49:37;68282.09;;;6.75;100.00
22930;BME280;11630;42.660;23.292;2023-03-01T02:55:14;68262.56;;;6.54;100.00
22930;BME280;11630;42.660;23.292;2023-03-01T02:57:45;68303.52;;;6.95;100.00
22930;BME280;11630;42.660;23.292;2023-03-01T03:00:23;68273.68;;;6.63;100.00
22930;BME280;11630;42.660;23.292;2023-03-01T03:02:55;68296.74;;;6.88;100.00
22930;BME280;11630;42.660;23.292;2023-03-01T03:05:27;68290.77;;;6.80;100.00
22930;BME280;11630;42.660;23.292;2023-03-01T03:07:58;68288.34;;;6.84;100.00
22930;BME280;11630;42.660;23.292;2023-03-01T03:10:32;68278.87;;;6.74;100.00
22930;BME280;11630;42.660;23.292;2023-03-01T03:13:06;68258.50;;;6.49;100.00
22930;BME280;11630;42.660;23.292;2023-03-01T03:15:37;68253.11;;;6.49;100.00
22930;BME280;11630;42.660;23.292;2023-03-01T03:18:11;68263.95;;;6.59;100.00
22930;BME280;11630;42.660;23.292;2023-03-01T03:20:45;68258.52;;;6.54;100.00
22930;BME280;11630;42.660;23.292;2023-03-01T03:23:16;68247.70;;;6.44;100.00
22930;BME280;11630;42.660;23.292;2023-03-01T03:25:49;68232.25;;;6.31;100.00
22930;BME280;11630;42.660;23.292;2023-03-01T03:28:20;68227.91;;;6.25;100.00
22930;BME280;11630;42.660;23.292;2023-03-01T03:30:51;68233.33;;;6.30;100.00
22930;BME280;11630;42.660;23.292;2023-03-01T03:33:22;68239.57;;;6.39;100.00
22930;BME280;11630;42.660;23.292;2023-03-01T03:35:53;68267.19;;;6.60;100.00
22930;BME280;11630;42.660;23.292;2023-03-01T03:38:24;68259.86;;;6.52;100.00
22930;BME280;11630;42.660;23.292;2023-03-01T03:41:03;68280.48;;;6.73;100.00
22930;BME280;11630;42.660;23.292;2023-03-01T03:43:50;68275.86;;;6.68;100.00
22930;BME280;11630;42.660;23.292;2023-03-01T03:46:21;68236.59;;;6.35;100.00
22930;BME280;11630;42.660;23.292;2023-03-01T03:48:51;68254.45;;;6.49;100.00
22930;BME280;11630;42.660;23.292;2023-03-01T03:51:22;68253.64;;;6.50;100.00
22930;BME280;11630;42.660;23.292;2023-03-01T03:53:53;68257.16;;;6.49;100.00
22930;BME280;11630;42.660;23.292;2023-03-01T03:56:24;68263.13;;;6.57;100.00
22930;BME280;11630;42.660;23.292;2023-03-01T03:58:55;68222.52;;;6.25;100.00
22930;BME280;11630;42.660;23.292;2023-03-01T04:01:27;68256.63;;;6.51;100.00
22930;BME280;11630;42.660;23.292;2023-03-01T04:03:57;68263.13;;;6.57;100.00
22930;BME280;11630;42.660;23.292;2023-03-01T04:06:28;68254.99;;;6.50;100.00
22930;BME280;11630;42.660;23.292;2023-03-01T04:09:00;68251.20;;;6.46;100.00
22930;BME280;11630;42.660;23.292;2023-03-01T04:11:33;68260.67;;;6.51;100.00
22930;BME280;11630;42.660;23.292;2023-03-01T04:14:04;68259.61;;;6.55;100.00
22930;BME280;11630;42.660;23.292;2023-03-01T04:16:35;68250.94;;;6.47;100.00
22930;BME280;11630;42.660;23.292;2023-03-01T04:19:06;68217.05;;;6.12;100.00
22930;BME280;11630;42.660;23.292;2023-03-01T04:21:37;68218.97;;;6.15;100.00
22930;BME280;11630;42.660;23.292;2023-03-01T04:24:08;68239.81;;;6.33;100.00
22930;BME280;11630;42.660;23.292;2023-03-01T04:26:39;68203.23;;;5.99;100.00
22930;BME280;11630;42.660;23.292;2023-03-01T04:29:10;68220.86;;;6.18;100.00
22930;BME280;11630;42.660;23.292;2023-03-01T04:31:41;68227.09;;;6.23;100.00
22930;BME280;11630;42.660;23.292;2023-03-01T04:34:12;68214.11;;;6.16;100.00
22930;BME280;11630;42.660;23.292;2023-03-01T04:36:43;68236.01;;;6.27;100.00
22930;BME280;11630;42.660;23.292;2023-03-01T04:39:13;68244.44;;;6.41;100.00
22930;BME280;11630;42.660;23.292;2023-03-01T04:41:45;68253.91;;;6.49;100.00
22930;BME280;11630;42.660;23.292;2023-03-01T04:44:15;68268.27;;;6.58;100.00
22930;BME280;11630;42.660;23.292;2023-03-01T04:46:45;68257.16;;;6.49;100.00
22930;BME280;11630;42.660;23.292;2023-03-01T04:49:16;68254.45;;;6.49;100.00
22930;BME280;11630;42.660;23.292;2023-03-01T04:51:49;68255.80;;;6.49;100.00
22930;BME280;11630;42.660;23.292;2023-03-01T04:54:19;68240.63;;;6.33;100.00
22930;BME280;11630;42.660;23.292;2023-03-01T04:56:50;68251.20;;;6.46;100.00
22930;BME280;11630;42.660;23.292;2023-03-01T04:59:21;68253.89;;;6.46;100.00
22930;BME280;11630;42.660;23.292;2023-03-01T05:01:51;68265.83;;;6.57;100.00
22930;BME280;11630;42.660;23.292;2023-03-01T05:04:23;68256.34;;;6.50;100.00
22930;BME280;11630;42.660;23.292;2023-03-01T05:06:53;68260.70;;;6.56;100.00
22930;BME280;11630;42.660;23.292;2023-03-01T05:09:24;68252.86;;;6.53;100.00
22930;BME280;11630;42.660;23.292;2023-03-01T05:11:55;68252.28;;;6.47;100.00
22930;BME280;11630;42.660;23.292;2023-03-01T05:14:26;68266.10;;;6.59;100.00
22930;BME280;11630;42.660;23.292;2023-03-01T05:16:57;68262.30;;;6.55;100.00
22930;BME280;11630;42.660;23.292;2023-03-01T05:19:28;68238.72;;;6.32;100.00
22930;BME280;11630;42.660;23.292;2023-03-01T05:21:59;68235.77;;;6.33;100.00
22930;BME280;11630;42.660;23.292;2023-03-01T05:24:35;68238.18;;;6.29;100.00
22930;BME280;11630;42.660;23.292;2023-03-01T05:27:07;68225.20;;;6.22;100.00
22930;BME280;11630;42.660;23.292;2023-03-01T05:29:38;68236.59;;;6.35;100.00
22930;BME280;11630;42.660;23.292;2023-03-01T05:32:09;68209.76;;;6.09;100.00
22930;BME280;11630;42.660;23.292;2023-03-01T05:34:39;68240.38;;;6.36;100.00
22930;BME280;11630;42.660;23.292;2023-03-01T05:37:09;68247.41;;;6.43;100.00
22930;BME280;11630;42.660;23.292;2023-03-01T05:39:40;68243.09;;;6.41;100.00
22930;BME280;11630;42.660;23.292;2023-03-01T05:42:12;68236.85;;;6.34;100.00
22930;BME280;11630;42.660;23.292;2023-03-01T05:44:42;68246.88;;;6.42;100.00
22930;BME280;11630;42.660;23.292;2023-03-01T05:47:13;68241.98;;;6.35;100.00
22930;BME280;11630;42.660;23.292;2023-03-01T05:49:44;68260.95;;;6.55;100.00
22930;BME280;11630;42.660;23.292;2023-03-01T05:52:15;68255.28;;;6.51;100.00
22930;BME280;11630;42.660;23.292;2023-03-01T05:54:46;68236.33;;;6.36;100.00
22930;BME280;11630;42.660;23.292;2023-03-01T05:57:16;68237.42;;;6.37;100.00
22930;BME280;11630;42.660;23.292;2023-03-01T05:59:47;68267.45;;;6.61;100.00
22930;BME280;11630;42.660;23.292;2023-03-01T06:02:17;68265.59;;;6.63;100.00
22930;BME280;11630;42.660;23.292;2023-03-01T06:04:48;68271.55;;;6.66;100.00
22930;BME280;11630;42.660;23.292;2023-03-01T06:07:19;68289.69;;;6.82;100.00
22930;BME280;11630;42.660;23.292;2023-03-01T06:09:51;68290.77;;;6.80;100.00
22930;BME280;11630;42.660;23.292;2023-03-01T06:12:20;68275.88;;;6.70;100.00
22930;BME280;11630;42.660;23.292;2023-03-01T06:14:51;68265.56;;;6.58;100.00
22930;BME280;11630;42.660;23.292;2023-03-01T06:17:22;68280.19;;;6.72;100.00
22930;BME280;11630;42.660;23.292;2023-03-01T06:19:53;68300.81;;;6.93;100.00
22930;BME280;11630;42.660;23.292;2023-03-01T06:22:24;68297.83;;;6.89;100.00
22930;BME280;11630;42.660;23.292;2023-03-01T06:24:55;68305.68;;;6.95;100.00
22930;BME280;11630;42.660;23.292;2023-03-01T06:27:26;68309.47;;;6.96;100.00
22930;BME280;11630;42.660;23.292;2023-03-01T06:29:57;68305.39;;;6.93;100.00
22930;BME280;11630;42.660;23.292;2023-03-01T06:32:28;68271.30;;;6.72;100.00
22930;BME280;11630;42.660;23.292;2023-03-01T06:34:59;68304.59;;;6.91;100.00
22930;BME280;11630;42.660;23.292;2023-03-01T06:37:30;68293.22;;;6.86;100.00
22930;BME280;11630;42.660;23.292;2023-03-01T06:40:02;68301.08;;;6.94;100.00
22930;BME280;11630;42.660;23.292;2023-03-01T06:42:32;68281.83;;;6.73;100.00
22930;BME280;11630;42.660;23.292;2023-03-01T06:45:04;68279.64;;;6.69;100.00
22930;BME280;11630;42.660;23.292;2023-03-01T06:47:36;68310.58;;;7.02;100.00
22930;BME280;11630;42.660;23.292;2023-03-01T06:50:07;68319.49;;;7.04;100.00
22930;BME280;11630;42.660;23.292;2023-03-01T06:52:38;68272.64;;;6.70;100.00
22930;BME280;11630;42.660;23.292;2023-03-01T06:55:09;68305.16;;;6.99;100.00
22930;BME280;11630;42.660;23.292;2023-03-01T06:57:42;68307.58;;;7.00;100.00
22930;BME280;11630;42.660;23.292;2023-03-01T07:00:19;68300.25;;;6.90;100.00
22930;BME280;11630;42.660;23.292;2023-03-01T07:02:51;68285.63;;;6.79;100.00
22930;BME280;11630;42.660;23.292;2023-03-01T07:05:21;68278.31;;;6.74;100.00
22930;BME280;11630;42.660;23.292;2023-03-01T07:07:53;68295.67;;;6.92;100.00
22930;BME280;11630;42.660;23.292;2023-03-01T07:10:24;68314.36;;;7.03;100.00
22930;BME280;11630;42.660;23.292;2023-03-01T07:12:56;68318.95;;;7.06;100.00
22930;BME280;11630;42.660;23.292;2023-03-01T07:15:27;68311.92;;;7.02;100.00
22930;BME280;11630;42.660;23.292;2023-03-01T07:17:58;68320.87;;;7.11;100.00
22930;BME280;11630;42.660;23.292;2023-03-01T07:20:29;68331.43;;;7.20;100.00
22930;BME280;11630;42.660;23.292;2023-03-01T07:23:00;68290.78;;;6.85;100.00
22930;BME280;11630;42.660;23.292;2023-03-01T07:25:31;68310.31;;;7.03;100.00
22930;BME280;11630;42.660;23.292;2023-03-01T07:28:02;68317.32;;;7.02;100.00
22930;BME280;11630;42.660;23.292;2023-03-01T07:30:33;68331.98;;;7.18;100.00
22930;BME280;11630;42.660;23.292;2023-03-01T07:33:04;68331.69;;;7.19;100.00
22930;BME280;11630;42.660;23.292;2023-03-01T07:35:35;68340.66;;;7.26;100.00
22930;BME280;11630;42.660;23.292;2023-03-01T07:38:06;68333.08;;;7.24;100.00
22930;BME280;11630;42.660;23.292;2023-03-01T07:40:36;68342.84;;;7.33;100.00
22930;BME280;11630;42.660;23.292;2023-03-01T07:43:07;68364.23;;;7.49;100.00
22930;BME280;11630;42.660;23.292;2023-03-01T07:45:38;68330.07;;;7.17;100.00
22930;BME280;11630;42.660;23.292;2023-03-01T07:48:09;68313.84;;;7.07;100.00
22930;BME280;11630;42.660;23.292;2023-03-01T07:50:40;68325.75;;;7.16;100.00
22930;BME280;11630;42.660;23.292;2023-03-01T07:53:11;68360.44;;;7.43;100.00
22930;BME280;11630;42.660;23.292;2023-03-01T07:55:43;68396.52;;;7.79;100.00
22930;BME280;11630;42.660;23.292;2023-03-01T07:58:14;68393.80;;;7.72;100.00
22930;BME280;11630;42.660;23.292;2023-03-01T08:00:44;68386.20;;;7.65;100.00
22930;BME280;11630;42.660;23.292;2023-03-01T08:03:15;68371.30;;;7.58;100.00
22930;BME280;11630;42.660;23.292;2023-03-01T08:05:46;68358.28;;;7.43;100.00
22930;BME280;11630;42.660;23.292;2023-03-01T08:08:17;68394.08;;;7.76;100.00
22930;BME280;11630;42.660;23.292;2023-03-01T08:10:47;68394.63;;;7.76;100.00
22930;BME280;11630;42.660;23.292;2023-03-01T08:13:17;68399.80;;;7.87;100.00
22930;BME280;11630;42.660;23.292;2023-03-01T08:15:51;68384.34;;;7.69;100.00
22930;BME280;11630;42.660;23.292;2023-03-01T08:18:21;68392.73;;;7.78;100.00
22930;BME280;11630;42.660;23.292;2023-03-01T08:20:52;68401.67;;;7.80;100.00
22930;BME280;11630;42.660;23.292;2023-03-01T08:23:23;68413.63;;;7.96;100.00
22930;BME280;11630;42.660;23.292;2023-03-01T08:25:54;68384.34;;;7.69;100.00
22930;BME280;11630;42.660;23.292;2023-03-01T08:28:26;68427.20;;;8.09;100.00
22930;BME280;11630;42.660;23.292;2023-03-01T08:30:56;68402.23;;;7.86;100.00
22930;BME280;11630;42.660;23.292;2023-03-01T08:33:27;68413.35;;;7.92;100.00
22930;BME280;11630;42.660;23.292;2023-03-01T08:36:04;68439.97;;;8.17;100.00
22930;BME280;11630;42.660;23.292;2023-03-01T08:38:35;68371.82;;;7.53;100.00
22930;BME280;11630;42.660;23.292;2023-03-01T08:41:06;68429.07;;;8.04;100.00
22930;BME280;11630;42.660;23.292;2023-03-01T08:43:38;68423.93;;;8.03;100.00
22930;BME280;11630;42.660;23.292;2023-03-01T08:46:12;68387.31;;;7.73;100.00
22930;BME280;11630;42.660;23.292;2023-03-01T08:48:44;68410.91;;;7.91;100.00
22930;BME280;11630;42.660;23.292;2023-03-01T08:51:17;68439.97;;;8.17;100.00
22930;BME280;11630;42.660;23.292;2023-03-01T08:53:48;68412.53;;;7.90;100.00
22930;BME280;11630;42.660;23.292;2023-03-01T08:56:19;68444.30;;;8.23;100.00
22930;BME280;11630;42.660;23.292;2023-03-01T08:58:50;68428.55;;;8.09;100.00
22930;BME280;11630;42.660;23.292;2023-03-01T09:01:22;68442.95;;;8.23;100.00
22930;BME280;11630;42.660;23.292;2023-03-01T09:03:51;68464.12;;;8.40;100.00
22930;BME280;11630;42.660;23.292;2023-03-01T09:06:21;68505.66;;;8.77;100.00
22930;BME280;11630;42.660;23.292;2023-03-01T09:08:52;68523.29;;;8.87;100.00
22930;BME280;11630;42.660;23.292;2023-03-01T09:11:23;68503.21;;;8.76;100.00
22930;BME280;11630;42.660;23.292;2023-03-01T09:13:54;68459.80;;;8.41;100.00
22930;BME280;11630;42.660;23.292;2023-03-01T09:16:25;68467.92;;;8.46;100.00
22930;BME280;11630;42.660;23.292;2023-03-01T09:18:58;68489.66;;;8.66;100.00
22930;BME280;11630;42.660;23.292;2023-03-01T09:21:27;68481.50;;;8.58;100.00
22930;BME280;11630;42.660;23.292;2023-03-01T09:23:57;68480.68;;;8.59;100.00
22930;BME280;11630;42.660;23.292;2023-03-01T09:26:27;68484.77;;;8.64;100.00
22930;BME280;11630;42.660;23.292;2023-03-01T09:28:58;68461.41;;;8.38;100.00
22930;BME280;11630;42.660;23.292;2023-03-01T09:31:29;68470.11;;;8.50;100.00
22930;BME280;11630;42.660;23.292;2023-03-01T09:34:00;68500.50;;;8.76;100.00
22930;BME280;11630;42.660;23.292;2023-03-01T09:36:31;68501.31;;;8.73;100.00
22930;BME280;11630;42.660;23.292;2023-03-01T09:39:02;68496.97;;;8.71;100.00
22930;BME280;11630;42.660;23.292;2023-03-01T09:44:24;68516.26;;;8.88;100.00
22930;BME280;11630;42.660;23.292;2023-03-01T09:46:51;68524.66;;;8.97;100.00
22930;BME280;11630;42.660;23.292;2023-03-01T09:49:26;68489.66;;;8.66;100.00
22930;BME280;11630;42.660;23.292;2023-03-01T09:54:48;68530.38;;;9.01;100.00
22930;BME280;11630;42.660;23.292;2023-03-01T09:57:33;68482.03;;;8.59;100.00
22930;BME280;11630;42.660;23.292;2023-03-01T10:03:08;68520.59;;;8.89;100.00
22930;BME280;11630;42.660;23.292;2023-03-01T10:11:00;68577.63;;;9.41;100.00
22930;BME280;11630;42.660;23.292;2023-03-01T10:16:16;68542.05;;;9.15;100.00
22930;BME280;11630;42.660;23.292;2023-03-01T10:18:51;68586.35;;;9.54;100.00
22930;BME280;11630;42.660;23.292;2023-03-01T10:21:21;68552.92;;;9.20;100.00
22930;BME280;11630;42.660;23.292;2023-03-01T10:23:52;68542.31;;;9.09;100.00
22930;BME280;11630;42.660;23.292;2023-03-01T10:26:44;68541.78;;;9.09;100.00
22930;BME280;11630;42.660;23.292;2023-03-01T10:29:16;68523.31;;;8.97;100.00
22930;BME280;11630;42.660;23.292;2023-03-01T10:31:48;68569.75;;;9.35;100.00
22930;BME280;11630;42.660;23.292;2023-03-01T10:34:27;68592.87;;;9.58;100.00
22930;BME280;11630;42.660;23.292;2023-03-01T10:37:10;68558.91;;;9.28;100.00
22930;BME280;11630;42.660;23.292;2023-03-01T10:40:09;68542.05;;;9.13;100.00
22930;BME280;11630;42.660;23.292;2023-03-01T10:42:47;68553.19;;;9.21;100.00
22930;BME280;11630;42.660;23.292;2023-03-01T10:45:38;68529.84;;;9.03;100.00
22930;BME280;11630;42.660;23.292;2023-03-01T10:48:23;68555.10;;;9.24;100.00
22930;BME280;11630;42.660;23.292;2023-03-01T10:53:42;68504.59;;;8.81;100.00
22930;BME280;11630;42.660;23.292;2023-03-01T10:56:15;68546.15;;;9.20;100.00
22930;BME280;11630;42.660;23.292;2023-03-01T10:59:19;68539.33;;;9.03;100.00
22930;BME280;11630;42.660;23.292;2023-03-01T11:01:35;68539.63;;;9.14;100.00
22930;BME280;11630;42.660;23.292;2023-03-01T11:04:11;68569.75;;;9.35;100.00
22930;BME280;11630;42.660;23.292;2023-03-01T11:06:42;68574.91;;;9.39;100.00
22930;BME280;11630;42.660;23.292;2023-03-01T11:09:20;68584.44;;;9.49;100.00
22930;BME280;11630;42.660;23.292;2023-03-01T11:11:59;68577.66;;;9.46;100.00
22930;BME280;11630;42.660;23.292;2023-03-01T11:14:35;68548.82;;;9.13;100.00
22930;BME280;11630;42.660;23.292;2023-03-01T11:17:12;68532.00;;;9.05;100.00
22930;BME280;11630;42.660;23.292;2023-03-01T11:19:43;68522.20;;;8.88;100.00
22930;BME280;11630;42.660;23.292;2023-03-01T11:22:19;68533.61;;;8.99;100.00
22930;BME280;11630;42.660;23.292;2023-03-01T11:24:50;68534.98;;;9.04;100.00
22930;BME280;11630;42.660;23.292;2023-03-01T11:27:28;68518.15;;;8.91;100.00
22930;BME280;11630;42.660;23.292;2023-03-01T11:35:38;68511.11;;;8.87;100.00
22930;BME280;11630;42.660;23.292;2023-03-01T11:38:34;68530.11;;;8.99;100.00
22930;BME280;11630;42.660;23.292;2023-03-01T11:40:54;68483.12;;;8.57;100.00
22930;BME280;11630;42.660;23.292;2023-03-01T11:43:37;68483.95;;;8.62;100.00
22930;BME280;11630;42.660;23.292;2023-03-01T11:52:29;68475.81;;;8.54;100.00
22930;BME280;11630;42.660;23.292;2023-03-01T11:55:36;68485.30;;;8.59;100.00
22930;BME280;11630;42.660;23.292;2023-03-01T11:58:08;68504.83;;;8.75;100.00
22930;BME280;11630;42.660;23.292;2023-03-01T12:01:09;68503.24;;;8.81;100.00
22930;BME280;11630;42.660;23.292;2023-03-01T12:03:59;68502.39;;;8.74;100.00
22930;BME280;11630;42.660;23.292;2023-03-01T12:06:50;68496.17;;;8.72;100.00
22930;BME280;11630;42.660;23.292;2023-03-01T12:12:34;68515.44;;;8.91;100.00
22930;BME280;11630;42.660;23.292;2023-03-01T12:15:26;68515.69;;;8.82;100.00
22930;BME280;11630;42.660;23.292;2023-03-01T12:20:58;68530.11;;;9.02;100.00
22930;BME280;11630;42.660;23.292;2023-03-01T12:23:36;68547.21;;;9.18;100.00
22930;BME280;11630;42.660;23.292;2023-03-01T12:29:16;68551.83;;;9.21;100.00
22930;BME280;11630;42.660;23.292;2023-03-01T12:46:27;68660.28;;;10.22;100.00
22930;BME280;11630;42.660;23.292;2023-03-01T12:49:09;68615.97;;;9.85;100.00
22930;BME280;11630;42.660;23.292;2023-03-01T12:51:39;68609.70;;;9.76;100.00
22930;BME280;11630;42.660;23.292;2023-03-01T12:54:15;68617.88;;;9.83;100.00
22930;BME280;11630;42.660;23.292;2023-03-01T12:56:48;68670.90;;;10.28;100.00
22930;BME280;11630;42.660;23.292;2023-03-01T12:59:31;68689.93;;;10.48;100.00
22930;BME280;11630;42.660;23.292;2023-03-01T13:10:05;68705.70;;;10.62;100.00
22930;BME280;11630;42.660;23.292;2023-03-01T13:12:52;68679.05;;;10.38;100.00
22930;BME280;11630;42.660;23.292;2023-03-01T13:15:26;68661.10;;;10.16;100.00
22930;BME280;11630;42.660;23.292;2023-03-01T13:20:51;68697.02;;;10.54;100.00
22930;BME280;11630;42.660;23.292;2023-03-01T13:23:26;68697.55;;;10.52;100.00
22930;BME280;11630;42.660;23.292;2023-03-01T13:28:48;68682.59;;;10.45;100.00
22930;BME280;11630;42.660;23.292;2023-03-01T13:33:58;68678.22;;;10.31;100.00
22930;BME280;11630;42.660;23.292;2023-03-01T13:41:55;68614.59;;;9.73;100.00
22930;BME280;11630;42.660;23.292;2023-03-01T13:44:35;68559.17;;;9.29;100.00
22930;BME280;11630;42.660;23.292;2023-03-01T13:49:56;68532.56;;;9.05;100.00
22930;BME280;11630;42.660;23.292;2023-03-01T13:52:37;68551.56;;;9.18;100.00
22930;BME280;11630;42.660;23.292;2023-03-01T13:55:19;68559.97;;;9.26;100.00
22930;BME280;11630;42.660;23.292;2023-03-01T13:57:59;68548.30;;;9.17;100.00
22930;BME280;11630;42.660;23.292;2023-03-01T14:00:28;68558.35;;;9.27;100.00
22930;BME280;11630;42.660;23.292;2023-03-01T14:03:04;68564.86;;;9.28;100.00
22930;BME280;11630;42.660;23.292;2023-03-01T14:05:35;68594.76;;;9.61;100.00
22930;BME280;11630;42.660;23.292;2023-03-01T14:08:17;68567.05;;;9.35;100.00
22930;BME280;11630;42.660;23.292;2023-03-01T14:10:43;68577.63;;;9.41;100.00
22930;BME280;11630;42.660;23.292;2023-03-01T14:16:33;68605.37;;;9.69;100.00
22930;BME280;11630;42.660;23.292;2023-03-01T14:19:14;68654.59;;;10.18;100.00
22930;BME280;11630;42.660;23.292;2023-03-01T14:21:19;68659.22;;;10.21;100.00
22930;BME280;11630;42.660;23.292;2023-03-01T14:23:50;68622.21;;;9.87;100.00
22930;BME280;11630;42.660;23.292;2023-03-01T14:26:22;68599.66;;;9.65;100.00
22930;BME280;11630;42.660;23.292;2023-03-01T14:28:52;68559.44;;;9.28;100.00
22930;BME280;11630;42.660;23.292;2023-03-01T14:31:37;68574.11;;;9.39;100.00
22930;BME280;11630;42.660;23.292;2023-03-01T14:34:21;68539.59;;;9.07;100.00
22930;BME280;11630;42.660;23.292;2023-03-01T14:36:51;68555.91;;;9.29;100.00
22930;BME280;11630;42.660;23.292;2023-03-01T14:39:25;68587.70;;;9.57;100.00
22930;BME280;11630;42.660;23.292;2023-03-01T14:42:01;68587.97;;;9.53;100.00
22930;BME280;11630;42.660;23.292;2023-03-01T14:44:32;68590.13;;;9.55;100.00
22930;BME280;11630;42.660;23.292;2023-03-01T14:47:04;68607.52;;;9.71;100.00
22930;BME280;11630;42.660;23.292;2023-03-01T14:49:35;68575.47;;;9.42;100.00